createdAt,value
2022-11-16T00:01:48.851Z,2.30
2022-11-16T00:04:16.682Z,2.25
2022-11-16T00:06:44.204Z,2.29
2022-11-16T00:09:28.917Z,2.28
2022-11-16T00:11:58.814Z,2.18
2022-11-16T00:14:28.976Z,2.24
2022-11-16T00:16:57.344Z,2.16
2022-11-16T00:19:25.424Z,2.26
2022-11-16T00:21:53.863Z,2.18
2022-11-16T00:24:24.109Z,2.17
2022-11-16T00:26:54.454Z,2.22
2022-11-16T00:29:24.415Z,2.00
2022-11-16T00:31:52.673Z,2.08
2022-11-16T00:34:22.744Z,2.08
2022-11-16T00:36:52.314Z,2.08
2022-11-16T00:39:19.989Z,2.04
2022-11-16T00:41:48.174Z,2.09
2022-11-16T00:44:16.235Z,2.18
2022-11-16T00:46:45.188Z,2.23
2022-11-16T00:49:12.981Z,2.26
2022-11-16T00:51:40.432Z,2.23
2022-11-16T00:54:10.065Z,2.09
2022-11-16T00:56:38.460Z,2.11
2022-11-16T00:59:07.024Z,2.06
2022-11-16T01:01:34.739Z,2.21
2022-11-16T01:04:03.073Z,2.17
2022-11-16T01:06:30.507Z,2.14
2022-11-16T01:08:57.684Z,2.09
2022-11-16T01:11:43.985Z,2.13
2022-11-16T01:14:11.650Z,2.10
2022-11-16T01:16:39.169Z,2.17
2022-11-16T01:19:06.643Z,2.15
2022-11-16T01:21:34.685Z,2.12
2022-11-16T01:24:02.253Z,1.99
2022-11-16T01:26:30.026Z,2.04
2022-11-16T01:28:59.053Z,2.04
2022-11-16T01:31:28.959Z,1.99
2022-11-16T01:33:57.192Z,2.00
2022-11-16T01:36:27.725Z,2.04
2022-11-16T01:38:57.254Z,2.04
2022-11-16T01:41:28.143Z,2.12
2022-11-16T01:44:02.399Z,2.06
2022-11-16T01:46:46.234Z,2.19
2022-11-16T01:49:20.539Z,2.23
2022-11-16T01:51:55.167Z,2.36
2022-11-16T01:54:25.237Z,2.31
2022-11-16T01:56:57.393Z,2.38
2022-11-16T01:59:36.877Z,2.34
2022-11-16T02:02:05.871Z,2.27
2022-11-16T02:04:34.001Z,2.30
2022-11-16T02:07:23.804Z,2.22
2022-11-16T02:10:19.049Z,2.19
2022-11-16T02:13:19.489Z,2.25
2022-11-16T02:15:48.336Z,2.07
2022-11-16T02:18:33.663Z,2.04
2022-11-16T02:21:59.758Z,2.11
2022-11-16T02:24:35.694Z,1.94
2022-11-16T02:27:26.878Z,1.88
2022-11-16T02:29:56.073Z,1.75
2022-11-16T02:32:32.608Z,1.81
2022-11-16T02:35:08.031Z,1.75
2022-11-16T02:37:40.063Z,1.67
2022-11-16T02:40:12.200Z,1.73
2022-11-16T02:42:46.364Z,1.46
2022-11-16T02:45:20.525Z,1.70
2022-11-16T02:47:51.076Z,1.59
2022-11-16T02:50:24.458Z,1.69
2022-11-16T02:52:53.864Z,1.66
2022-11-16T02:55:22.910Z,1.64
2022-11-16T02:57:57.745Z,1.66
2022-11-16T03:00:44.072Z,1.65
2022-11-16T03:03:23.424Z,1.69
2022-11-16T03:05:58.624Z,1.57
2022-11-16T03:08:36.752Z,1.57
2022-11-16T03:11:27.318Z,1.49
2022-11-16T03:14:14.090Z,1.59
2022-11-16T03:16:49.224Z,1.52
2022-11-16T03:19:26.952Z,1.49
2022-11-16T03:22:18.850Z,1.50
2022-11-16T03:24:46.581Z,1.44
2022-11-16T03:27:32.631Z,1.38
2022-11-16T03:30:06.214Z,1.41
2022-11-16T03:32:51.449Z,1.36
2022-11-16T03:35:49.745Z,1.36
2022-11-16T03:38:21.107Z,1.24
2022-11-16T03:40:51.190Z,1.26
2022-11-16T03:43:21.096Z,1.22
2022-11-16T03:45:49.336Z,1.18
2022-11-16T03:48:17.078Z,1.23
2022-11-16T03:50:46.103Z,1.20
2022-11-16T03:53:14.760Z,1.22
2022-11-16T03:55:46.977Z,1.19
2022-11-16T03:58:19.037Z,1.25
2022-11-16T04:00:46.927Z,1.26
2022-11-16T04:03:14.809Z,1.23
2022-11-16T04:06:03.617Z,1.20
2022-11-16T04:08:49.478Z,1.20
2022-11-16T04:11:39.248Z,1.27
2022-11-16T04:14:33.889Z,1.27
2022-11-16T04:17:19.596Z,1.23
2022-11-16T04:20:05.426Z,1.20
2022-11-16T04:22:56.112Z,1.33
2022-11-16T04:25:33.085Z,1.36
2022-11-16T04:28:16.539Z,1.31
2022-11-16T04:31:13.148Z,1.36
2022-11-16T04:34:04.873Z,1.28
2022-11-16T04:36:51.044Z,1.30
2022-11-16T04:39:18.172Z,1.59
2022-11-16T04:42:04.773Z,1.28
2022-11-16T04:44:55.840Z,1.22
2022-11-16T04:47:26.249Z,1.31
2022-11-16T04:49:53.513Z,1.42
2022-11-16T04:52:21.784Z,1.44
2022-11-16T04:54:49.578Z,1.48
2022-11-16T04:57:18.559Z,1.50
2022-11-16T04:59:48.354Z,1.50
2022-11-16T05:02:15.562Z,1.43
2022-11-16T05:04:48.610Z,1.44
2022-11-16T05:07:17.027Z,1.44
2022-11-16T05:09:48.719Z,1.41
2022-11-16T05:12:25.598Z,1.54
2022-11-16T05:14:57.329Z,1.64
2022-11-16T05:17:28.038Z,1.57
2022-11-16T05:20:15.874Z,1.60
2022-11-16T05:22:57.149Z,1.62
2022-11-16T05:25:29.315Z,1.67
2022-11-16T05:27:59.365Z,1.53
2022-11-16T05:30:29.898Z,1.65
2022-11-16T05:33:00.488Z,1.77
2022-11-16T05:35:30.491Z,1.81
2022-11-16T05:37:59.446Z,1.89
2022-11-16T05:40:26.836Z,1.90
2022-11-16T05:42:58.896Z,2.01
2022-11-16T05:45:29.288Z,1.97
2022-11-16T05:47:58.947Z,2.02
2022-11-16T05:50:26.962Z,2.13
2022-11-16T05:53:10.417Z,2.20
2022-11-16T05:55:38.642Z,2.28
2022-11-16T05:58:06.056Z,2.24
2022-11-16T06:00:34.455Z,2.31
2022-11-16T06:03:02.511Z,2.65
2022-11-16T06:05:40.007Z,2.83
2022-11-16T06:08:08.764Z,3.01
2022-11-16T06:10:37.240Z,3.18
2022-11-16T06:13:06.100Z,3.41
2022-11-16T06:15:38.914Z,3.29
2022-11-16T06:18:08.977Z,3.49
2022-11-16T06:20:38.975Z,3.49
2022-11-16T06:23:08.031Z,3.59
2022-11-16T06:25:39.077Z,3.67
2022-11-16T06:28:08.294Z,4.12
2022-11-16T06:30:38.801Z,4.43
2022-11-16T06:33:07.367Z,4.61
2022-11-16T06:35:35.273Z,4.89
2022-11-16T06:38:03.505Z,5.28
2022-11-16T06:40:30.890Z,5.42
2022-11-16T06:43:00.449Z,5.55
2022-11-16T06:45:27.780Z,5.30
2022-11-16T06:47:57.503Z,5.14
2022-11-16T06:50:25.663Z,5.21
2022-11-16T06:52:53.161Z,5.15
2022-11-16T06:55:20.971Z,5.10
2022-11-16T06:57:48.819Z,5.35
2022-11-16T07:00:17.470Z,5.41
2022-11-16T07:02:45.915Z,5.76
2022-11-16T07:05:16.483Z,6.07
2022-11-16T07:07:45.895Z,5.97
2022-11-16T07:10:14.028Z,5.77
2022-11-16T07:12:42.610Z,5.81
2022-11-16T07:15:10.156Z,5.99
2022-11-16T07:17:41.223Z,6.03
2022-11-16T07:20:09.395Z,6.38
2022-11-16T07:22:37.598Z,6.65
2022-11-16T07:25:05.696Z,6.60
2022-11-16T07:27:32.852Z,6.61
2022-11-16T07:30:02.435Z,6.50
2022-11-16T07:33:52.546Z,6.69
2022-11-16T07:37:35.261Z,6.83
2022-11-16T07:40:21.594Z,6.69
2022-11-16T07:42:49.796Z,6.85
2022-11-16T07:45:20.033Z,7.18
2022-11-16T07:48:00.745Z,7.55
2022-11-16T07:50:52.805Z,8.05
2022-11-16T07:53:20.912Z,8.37
2022-11-16T07:55:54.779Z,8.65
2022-11-16T07:58:24.697Z,8.59
2022-11-16T08:00:53.929Z,8.65
2022-11-16T08:03:24.630Z,8.27
2022-11-16T08:06:03.248Z,8.13
2022-11-16T08:08:30.998Z,8.02
2022-11-16T08:11:08.168Z,7.92
2022-11-16T08:13:38.065Z,7.63
2022-11-16T08:16:11.120Z,7.39
2022-11-16T08:18:41.934Z,7.22
2022-11-16T08:21:11.597Z,6.95
2022-11-16T08:23:42.690Z,6.69
2022-11-16T08:26:16.243Z,6.60
2022-11-16T08:28:51.141Z,6.48
2022-11-16T08:31:26.948Z,6.50
2022-11-16T08:34:01.068Z,6.58
2022-11-16T08:36:29.246Z,6.60
2022-11-16T08:38:57.012Z,6.48
2022-11-16T08:41:24.818Z,6.45
2022-11-16T08:43:53.731Z,6.40
2022-11-16T08:46:22.901Z,6.34
2022-11-16T08:48:57.643Z,6.19
2022-11-16T08:51:26.018Z,6.14
2022-11-16T08:54:05.343Z,5.94
2022-11-16T08:56:35.334Z,5.93
2022-11-16T08:59:03.708Z,5.77
2022-11-16T09:01:33.796Z,5.85
2022-11-16T09:04:01.129Z,5.94
2022-11-16T09:06:28.569Z,5.98
2022-11-16T09:08:56.304Z,6.10
2022-11-16T09:11:25.738Z,6.14
2022-11-16T09:13:55.032Z,6.27
2022-11-16T09:16:23.279Z,6.39
2022-11-16T09:18:51.963Z,6.31
2022-11-16T09:21:22.272Z,6.42
2022-11-16T09:23:50.641Z,6.69
2022-11-16T09:26:21.473Z,6.78
2022-11-16T09:29:01.462Z,6.92
2022-11-16T09:31:31.707Z,7.04
2022-11-16T09:33:59.720Z,7.08
2022-11-16T09:36:28.971Z,7.28
2022-11-16T09:42:10.478Z,7.84
2022-11-16T09:44:47.176Z,8.07
2022-11-16T09:47:52.023Z,8.32
2022-11-16T09:50:32.404Z,8.25
2022-11-16T09:53:15.091Z,8.21
2022-11-16T09:55:54.687Z,8.19
2022-11-16T09:58:28.501Z,8.22
2022-11-16T10:01:16.439Z,8.21
2022-11-16T10:03:50.518Z,8.19
2022-11-16T10:06:28.234Z,8.20
2022-11-16T10:08:56.976Z,8.26
2022-11-16T10:11:42.204Z,8.36
2022-11-16T10:14:38.444Z,8.45
2022-11-16T10:17:08.726Z,8.44
2022-11-16T10:19:44.170Z,8.47
2022-11-16T10:22:27.164Z,8.55
2022-11-16T10:24:58.363Z,8.47
2022-11-16T10:27:39.546Z,8.51
2022-11-16T10:30:16.755Z,8.58
2022-11-16T10:32:59.836Z,8.65
2022-11-16T10:35:34.307Z,8.73
2022-11-16T10:38:09.556Z,8.71
2022-11-16T10:40:38.522Z,8.96
2022-11-16T10:43:18.213Z,9.09
2022-11-16T10:45:58.205Z,9.17
2022-11-16T10:48:44.874Z,9.24
2022-11-16T10:51:12.214Z,9.12
2022-11-16T10:53:42.715Z,9.00
2022-11-16T10:56:22.786Z,9.01
2022-11-16T10:59:12.881Z,9.08
2022-11-16T11:01:42.080Z,9.16
2022-11-16T11:04:39.307Z,9.18
2022-11-16T11:07:29.794Z,8.99
2022-11-16T11:09:57.851Z,8.85
2022-11-16T11:12:38.858Z,8.76
2022-11-16T11:15:12.708Z,8.80
2022-11-16T11:17:44.789Z,8.72
2022-11-16T11:20:18.413Z,8.77
2022-11-16T11:23:00.840Z,8.80
2022-11-16T11:25:37.352Z,8.81
2022-11-16T11:28:17.164Z,8.84
2022-11-16T11:31:04.342Z,8.91
2022-11-16T11:33:54.581Z,8.83
2022-11-16T11:36:25.338Z,9.07
2022-11-16T11:39:00.722Z,9.08
2022-11-16T11:41:40.303Z,8.99
2022-11-16T11:44:17.769Z,9.09
2022-11-16T11:50:04.935Z,9.56
2022-11-16T11:52:39.759Z,9.59
2022-11-16T11:55:08.541Z,9.55
2022-11-16T11:57:42.751Z,9.42
2022-11-16T12:00:15.707Z,9.54
2022-11-16T12:03:05.136Z,9.66
2022-11-16T12:05:48.935Z,9.78
2022-11-16T12:08:34.691Z,9.57
2022-11-16T12:11:31.067Z,9.43
2022-11-16T12:14:23.357Z,9.39
2022-11-16T12:17:22.192Z,9.20
2022-11-16T12:20:07.900Z,9.09
2022-11-16T12:22:56.558Z,9.12
2022-11-16T12:25:52.741Z,9.05
2022-11-16T12:28:57.734Z,8.93
2022-11-16T12:31:45.242Z,8.81
2022-11-16T12:34:41.797Z,8.83
2022-11-16T12:37:39.558Z,8.81
2022-11-16T12:40:26.945Z,8.86
2022-11-16T12:42:56.931Z,8.81
2022-11-16T12:46:12.264Z,8.89
2022-11-16T12:48:44.912Z,8.90
2022-11-16T12:51:32.084Z,8.91
2022-11-16T12:54:14.457Z,9.04
2022-11-16T12:57:07.177Z,8.99
2022-11-16T12:59:53.463Z,9.09
2022-11-16T13:02:45.325Z,9.06
2022-11-16T13:05:40.635Z,9.04
2022-11-16T13:08:40.403Z,8.99
2022-11-16T13:11:24.887Z,8.90
2022-11-16T13:13:58.094Z,8.83
2022-11-16T13:16:26.432Z,8.68
2022-11-16T13:18:55.654Z,8.54
2022-11-16T13:21:29.264Z,8.59
2022-11-16T13:24:22.639Z,8.72
2022-11-16T13:27:04.014Z,8.90
2022-11-16T13:29:47.056Z,8.85
2022-11-16T13:32:21.399Z,8.69
2022-11-16T13:34:49.545Z,8.63
2022-11-16T13:37:38.905Z,8.76
2022-11-16T13:40:06.971Z,8.66
2022-11-16T13:42:57.996Z,8.79
2022-11-16T13:45:31.932Z,8.72
2022-11-16T13:48:00.831Z,8.65
2022-11-16T13:50:38.169Z,8.72
2022-11-16T13:56:08.254Z,8.76
2022-11-16T13:58:38.152Z,8.80
2022-11-16T14:01:11.079Z,8.89
2022-11-16T14:03:40.857Z,8.96
2022-11-16T14:06:14.107Z,9.06
2022-11-16T14:08:46.642Z,9.05
2022-11-16T14:11:35.849Z,9.12
2022-11-16T14:14:08.047Z,8.97
2022-11-16T14:16:50.249Z,8.99
2022-11-16T14:19:54.808Z,9.00
2022-11-16T14:22:53.912Z,8.98
2022-11-16T14:25:33.787Z,8.96
2022-11-16T14:28:23.211Z,9.01
2022-11-16T14:31:14.873Z,9.00
2022-11-16T14:33:42.923Z,9.06
2022-11-16T14:36:11.422Z,9.06
2022-11-16T14:38:46.756Z,9.14
2022-11-16T14:41:21.948Z,9.17
2022-11-16T14:43:54.696Z,9.07
2022-11-16T14:46:36.572Z,9.07
2022-11-16T14:49:05.316Z,9.16
2022-11-16T14:51:36.114Z,9.18
2022-11-16T14:54:30.487Z,9.12
2022-11-16T14:57:03.109Z,9.19
2022-11-16T14:59:31.529Z,9.03
2022-11-16T15:02:05.219Z,9.07
2022-11-16T15:04:33.176Z,9.15
2022-11-16T15:07:05.358Z,9.14
2022-11-16T15:09:40.245Z,9.22
2022-11-16T15:12:33.853Z,9.23
2022-11-16T15:15:06.892Z,9.31
2022-11-16T15:17:34.865Z,9.37
2022-11-16T15:20:14.555Z,9.37
2022-11-16T15:22:45.363Z,9.44
2022-11-16T15:25:35.908Z,9.47
2022-11-16T15:28:17.471Z,9.34
2022-11-16T15:31:07.947Z,9.31
2022-11-16T15:33:41.711Z,9.24
2022-11-16T15:36:41.330Z,9.31
2022-11-16T15:39:24.841Z,9.26
2022-11-16T15:41:52.756Z,9.25
2022-11-16T15:44:22.882Z,9.15
2022-11-16T15:46:53.673Z,9.16
2022-11-16T15:49:20.917Z,9.19
2022-11-16T15:51:48.090Z,9.02
2022-11-16T15:54:23.795Z,9.07
2022-11-16T15:56:53.751Z,8.80
2022-11-16T15:59:31.774Z,8.89
2022-11-16T16:01:59.358Z,8.88
2022-11-16T16:04:29.288Z,8.84
2022-11-16T16:06:59.445Z,8.76
2022-11-16T16:09:31.911Z,8.81
2022-11-16T16:12:24.876Z,8.80
2022-11-16T16:14:53.166Z,8.50
2022-11-16T16:17:29.736Z,8.54
2022-11-16T16:20:02.675Z,8.58
2022-11-16T16:22:34.180Z,8.49
2022-11-16T16:25:02.686Z,8.41
2022-11-16T16:27:32.235Z,8.41
2022-11-16T16:30:06.104Z,8.43
2022-11-16T16:32:36.806Z,8.45
2022-11-16T16:35:07.620Z,8.47
2022-11-16T16:37:37.315Z,8.46
2022-11-16T16:40:05.145Z,8.41
2022-11-16T16:42:33.187Z,8.43
2022-11-16T16:45:02.147Z,8.41
2022-11-16T16:47:32.014Z,8.32
2022-11-16T16:49:59.697Z,8.35
2022-11-16T16:52:27.949Z,8.32
2022-11-16T16:54:55.308Z,8.39
2022-11-16T16:57:22.845Z,8.41
2022-11-16T16:59:50.046Z,8.37
2022-11-16T17:02:17.559Z,8.29
2022-11-16T17:04:47.840Z,8.35
2022-11-16T17:07:16.418Z,8.31
2022-11-16T17:09:44.168Z,8.27
2022-11-16T17:12:12.412Z,8.34
2022-11-16T17:14:39.978Z,8.30
2022-11-16T17:17:07.590Z,8.29
2022-11-16T17:19:34.872Z,8.38
2022-11-16T17:22:02.127Z,8.26
2022-11-16T17:24:29.365Z,8.45
2022-11-16T17:26:57.058Z,8.41
2022-11-16T17:29:25.382Z,8.50
2022-11-16T17:31:52.641Z,8.73
2022-11-16T17:34:20.509Z,8.75
2022-11-16T17:36:47.888Z,8.91
2022-11-16T17:39:16.253Z,8.92
2022-11-16T17:41:45.791Z,8.91
2022-11-16T17:44:17.170Z,8.88
2022-11-16T17:46:47.438Z,9.02
2022-11-16T17:49:16.492Z,8.99
2022-11-16T17:51:43.880Z,9.09
2022-11-16T17:54:11.040Z,9.06
2022-11-16T17:56:38.820Z,9.18
2022-11-16T17:59:06.321Z,9.27
2022-11-16T18:01:36.173Z,9.13
2022-11-16T18:04:05.059Z,9.14
2022-11-16T18:06:33.341Z,8.99
2022-11-16T18:09:00.743Z,9.11
2022-11-16T18:11:28.956Z,9.15
2022-11-16T18:14:01.379Z,9.08
2022-11-16T18:16:31.933Z,9.05
2022-11-16T18:19:04.487Z,9.04
2022-11-16T18:21:34.052Z,9.01
2022-11-16T18:24:01.369Z,8.84
2022-11-16T18:26:28.730Z,8.90
2022-11-16T18:28:57.412Z,8.91
2022-11-16T18:31:25.129Z,8.89
2022-11-16T18:33:53.364Z,8.79
2022-11-16T18:36:22.346Z,8.84
2022-11-16T18:38:50.285Z,8.76
2022-11-16T18:41:26.487Z,8.88
2022-11-16T18:43:56.811Z,8.77
2022-11-16T18:46:28.553Z,8.88
2022-11-16T18:48:56.881Z,8.78
2022-11-16T18:51:27.199Z,9.02
2022-11-16T18:53:55.449Z,9.14
2022-11-16T18:56:23.783Z,9.12
2022-11-16T18:58:52.896Z,9.12
2022-11-16T19:01:23.561Z,9.15
2022-11-16T19:03:52.671Z,9.34
2022-11-16T19:06:21.968Z,9.23
2022-11-16T19:09:04.046Z,9.48
2022-11-16T19:11:31.358Z,9.41
2022-11-16T19:14:08.036Z,9.40
2022-11-16T19:16:36.479Z,9.35
2022-11-16T19:19:04.558Z,9.51
2022-11-16T19:21:32.067Z,9.57
2022-11-16T19:23:59.299Z,9.71
2022-11-16T19:26:27.967Z,9.81
2022-11-16T19:28:55.690Z,10.03
2022-11-16T19:31:29.025Z,10.10
2022-11-16T19:34:16.976Z,10.22
2022-11-16T19:36:45.149Z,10.19
2022-11-16T19:39:12.299Z,10.19
2022-11-16T19:41:39.538Z,10.23
2022-11-16T19:44:06.822Z,10.43
2022-11-16T19:46:36.095Z,10.47
2022-11-16T19:49:03.839Z,10.56
2022-11-16T19:51:33.283Z,10.62
2022-11-16T19:54:02.697Z,10.75
2022-11-16T19:56:30.474Z,10.68
2022-11-16T19:58:57.953Z,10.62
2022-11-16T20:01:28.976Z,10.74
2022-11-16T20:04:02.365Z,10.68
2022-11-16T20:06:36.623Z,10.72
2022-11-16T20:09:13.236Z,10.62
2022-11-16T20:11:41.964Z,10.56
2022-11-16T20:14:11.942Z,10.40
2022-11-16T20:16:41.254Z,10.31
2022-11-16T20:19:10.031Z,10.45
2022-11-16T20:21:42.679Z,10.49
2022-11-16T20:24:13.392Z,10.50
2022-11-16T20:26:48.879Z,10.50
2022-11-16T20:29:19.425Z,10.50
2022-11-16T20:31:47.399Z,10.57
2022-11-16T20:34:16.970Z,10.39
2022-11-16T20:36:49.808Z,10.40
2022-11-16T20:39:21.079Z,10.46
2022-11-16T20:41:48.500Z,10.39
2022-11-16T20:44:24.181Z,10.32
2022-11-16T20:46:52.920Z,10.34
2022-11-16T20:49:20.859Z,10.47
2022-11-16T20:51:50.682Z,10.41
2022-11-16T20:54:17.835Z,10.48
2022-11-16T20:56:44.992Z,10.36
2022-11-16T20:59:12.197Z,10.16
2022-11-16T21:01:41.761Z,9.97
2022-11-16T21:04:11.043Z,9.91
2022-11-16T21:06:38.234Z,9.92
2022-11-16T21:09:05.708Z,9.73
2022-11-16T21:11:52.334Z,9.66
2022-11-16T21:14:21.839Z,9.56
2022-11-16T21:16:50.888Z,9.36
2022-11-16T21:19:18.731Z,9.35
2022-11-16T21:21:46.077Z,9.14
2022-11-16T21:24:13.321Z,9.10
2022-11-16T21:26:40.524Z,9.02
2022-11-16T21:29:07.967Z,8.81
2022-11-16T21:31:37.696Z,8.86
2022-11-16T21:34:06.005Z,8.83
2022-11-16T21:36:33.886Z,8.86
2022-11-16T21:39:01.535Z,8.81
2022-11-16T21:41:29.070Z,8.75
2022-11-16T21:43:56.366Z,8.68
2022-11-16T21:46:25.935Z,8.71
2022-11-16T21:48:56.770Z,8.74
2022-11-16T21:51:27.404Z,8.62
2022-11-16T21:53:55.264Z,8.61
2022-11-16T21:56:24.789Z,8.57
2022-11-16T21:58:53.610Z,8.49
2022-11-16T22:01:22.850Z,8.59
2022-11-16T22:04:10.403Z,8.60
2022-11-16T22:06:56.406Z,8.64
2022-11-16T22:09:23.776Z,8.62
2022-11-16T22:11:51.345Z,8.64
2022-11-16T22:14:18.507Z,8.63
2022-11-16T22:16:46.680Z,8.61
2022-11-16T22:19:13.879Z,8.68
2022-11-16T22:21:41.269Z,8.75
2022-11-16T22:24:08.804Z,8.78
2022-11-16T22:26:36.230Z,8.76
2022-11-16T22:29:03.378Z,8.64
2022-11-16T22:31:30.732Z,8.61
2022-11-16T22:33:58.106Z,8.63
2022-11-16T22:36:25.539Z,8.59
2022-11-16T22:38:53.592Z,8.65
2022-11-16T22:41:21.063Z,8.48
2022-11-16T22:43:49.931Z,8.61
2022-11-16T22:46:17.076Z,8.71
2022-11-16T22:48:45.179Z,8.69
2022-11-16T22:51:25.654Z,8.72
2022-11-16T22:53:57.619Z,8.66
2022-11-16T22:56:25.621Z,8.66
2022-11-16T22:58:53.432Z,8.70
2022-11-16T23:01:21.501Z,8.79
2022-11-16T23:03:49.871Z,8.79
2022-11-16T23:06:18.425Z,8.85
2022-11-16T23:08:45.704Z,8.91
2022-11-16T23:11:39.896Z,9.01
2022-11-16T23:14:29.628Z,9.05
2022-11-16T23:16:57.484Z,9.09
2022-11-16T23:19:44.026Z,9.18
2022-11-16T23:22:36.143Z,9.20
2022-11-16T23:25:24.231Z,9.25
2022-11-16T23:28:18.871Z,9.42
2022-11-16T23:30:46.278Z,9.26
2022-11-16T23:33:13.724Z,9.35
2022-11-16T23:35:41.089Z,9.35
2022-11-16T23:38:08.559Z,9.31
2022-11-16T23:40:40.209Z,9.46
2022-11-16T23:43:28.844Z,9.39
2022-11-16T23:45:56.251Z,9.42
2022-11-16T23:48:24.202Z,9.60
2022-11-16T23:50:51.543Z,9.67
2022-11-16T23:53:19.043Z,9.59
2022-11-16T23:55:47.715Z,9.55
2022-11-16T23:58:15.577Z,9.46
